createdAt,value
2017-05-04T00:00:59.043Z,997.48
2017-05-04T00:02:09.384Z,997.5
2017-05-04T00:03:19.737Z,997.45
2017-05-04T00:04:30.070Z,997.45
2017-05-04T00:05:40.410Z,997.44
2017-05-04T00:06:50.441Z,997.45
2017-05-04T00:08:00.154Z,997.4
2017-05-04T00:09:10.516Z,997.43
2017-05-04T00:10:20.845Z,997.43
2017-05-04T00:11:30.870Z,997.42
2017-05-04T00:12:41.234Z,997.41
2017-05-04T00:13:51.277Z,997.42
2017-05-04T00:15:01.616Z,997.37
2017-05-04T00:16:11.330Z,997.4
2017-05-04T00:17:21.353Z,997.43
2017-05-04T00:18:31.392Z,997.42
2017-05-04T00:19:41.732Z,997.43
2017-05-04T00:20:51.777Z,997.47
2017-05-04T00:22:01.801Z,997.46
2017-05-04T00:23:11.518Z,997.46
2017-05-04T00:24:21.875Z,997.44
2017-05-04T00:25:32.229Z,997.42
2017-05-04T00:26:42.588Z,997.42
2017-05-04T00:27:52.619Z,997.41
2017-05-04T00:29:02.967Z,997.38
2017-05-04T00:30:13.010Z,997.37
2017-05-04T00:31:23.053Z,997.38
2017-05-04T00:32:33.391Z,997.35
2017-05-04T00:33:43.735Z,997.35
2017-05-04T00:34:54.069Z,997.35
2017-05-04T00:36:04.421Z,997.38
2017-05-04T00:37:14.448Z,997.38
2017-05-04T00:38:24.805Z,997.39
2017-05-04T00:39:34.849Z,997.39
2017-05-04T00:40:45.205Z,997.37
2017-05-04T00:41:55.539Z,997.35
2017-05-04T00:43:05.891Z,997.33
2017-05-04T00:44:16.261Z,997.31
2017-05-04T00:45:26.293Z,997.28
2017-05-04T00:46:36.640Z,997.27
2017-05-04T00:47:46.983Z,997.27
2017-05-04T00:48:57.341Z,997.25
2017-05-04T00:50:07.687Z,997.25
2017-05-04T00:51:18.038Z,997.25
2017-05-04T00:52:28.380Z,997.21
2017-05-04T00:53:38.733Z,997.21
2017-05-04T00:54:49.084Z,997.23
2017-05-04T00:55:59.419Z,997.32
2017-05-04T00:57:09.752Z,997.32
2017-05-04T00:58:19.777Z,997.3
2017-05-04T00:59:29.811Z,997.33
2017-05-04T01:00:39.846Z,997.34
2017-05-04T01:01:50.178Z,997.32
2017-05-04T01:03:00.521Z,997.31
2017-05-04T01:04:10.872Z,997.37
2017-05-04T01:05:20.915Z,997.36
2017-05-04T01:06:31.265Z,997.36
2017-05-04T01:07:41.293Z,997.37
2017-05-04T01:08:51.646Z,997.36
2017-05-04T01:10:02.014Z,997.35
2017-05-04T01:11:12.377Z,997.35
2017-05-04T01:12:22.413Z,997.38
2017-05-04T01:13:32.756Z,997.38
2017-05-04T01:14:43.107Z,997.36
2017-05-04T01:15:53.435Z,997.35
2017-05-04T01:17:03.770Z,997.29
2017-05-04T01:18:13.797Z,997.31
2017-05-04T01:19:23.846Z,997.33
2017-05-04T01:20:34.189Z,997.33
2017-05-04T01:21:44.214Z,997.37
2017-05-04T01:22:54.268Z,997.31
2017-05-04T01:24:04.006Z,997.29
2017-05-04T01:25:14.387Z,997.31
2017-05-04T01:26:24.740Z,997.3
2017-05-04T01:27:35.091Z,997.28
2017-05-04T01:28:45.118Z,997.29
2017-05-04T01:29:55.522Z,997.25
2017-05-04T01:31:05.549Z,997.29
2017-05-04T01:32:15.646Z,997.3
2017-05-04T01:33:25.970Z,997.32
2017-05-04T01:34:35.995Z,997.31
2017-05-04T01:35:46.338Z,997.31
2017-05-04T01:36:56.694Z,997.33
2017-05-04T01:38:06.447Z,997.34
2017-05-04T01:39:16.799Z,997.36
2017-05-04T01:40:27.135Z,997.31
2017-05-04T01:41:37.478Z,997.32
2017-05-04T01:42:47.832Z,997.31
2017-05-04T01:43:58.180Z,997.28
2017-05-04T01:45:08.521Z,997.28
2017-05-04T01:46:18.853Z,997.25
2017-05-04T01:47:29.194Z,997.25
2017-05-04T01:48:39.563Z,997.28
2017-05-04T01:49:49.655Z,997.28
2017-05-04T01:50:59.986Z,997.28
2017-05-04T01:52:09.703Z,997.29
2017-05-04T01:53:19.415Z,997.28
2017-05-04T01:54:29.747Z,997.32
2017-05-04T01:55:40.073Z,997.31
2017-05-04T01:56:50.403Z,997.31
2017-05-04T01:58:00.430Z,997.32
2017-05-04T01:59:10.788Z,997.38
2017-05-04T02:00:21.118Z,997.36
2017-05-04T02:01:31.509Z,997.37
2017-05-04T02:02:41.850Z,997.42
2017-05-04T02:03:52.189Z,997.45
2017-05-04T02:05:02.543Z,997.52
2017-05-04T02:06:12.886Z,997.46
2017-05-04T02:07:23.217Z,997.47
2017-05-04T02:08:33.242Z,997.49
2017-05-04T02:09:43.592Z,997.52
2017-05-04T02:10:53.955Z,997.53
2017-05-04T02:12:04.312Z,997.5
2017-05-04T02:13:14.738Z,997.51
2017-05-04T02:14:25.119Z,997.5
2017-05-04T02:15:34.836Z,997.52
2017-05-04T02:16:45.198Z,997.48
2017-05-04T02:17:55.236Z,997.5
2017-05-04T02:19:05.582Z,997.51
2017-05-04T02:20:15.929Z,997.52
2017-05-04T02:21:26.269Z,997.5
2017-05-04T02:22:36.618Z,997.5
2017-05-04T02:23:46.961Z,997.53
2017-05-04T02:24:57.299Z,997.53
2017-05-04T02:26:07.672Z,997.52
2017-05-04T02:27:17.703Z,997.51
2017-05-04T02:28:27.141Z,997.5
2017-05-04T02:29:37.177Z,997.53
2017-05-04T02:30:47.567Z,997.53
2017-05-04T02:31:57.936Z,997.46
2017-05-04T02:33:07.666Z,997.46
2017-05-04T02:34:17.690Z,997.48
2017-05-04T02:35:27.710Z,997.49
2017-05-04T02:36:38.050Z,997.48
2017-05-04T02:37:48.395Z,997.48
2017-05-04T02:38:58.748Z,997.51
2017-05-04T02:40:08.775Z,997.51
2017-05-04T02:41:19.112Z,997.56
2017-05-04T02:42:29.446Z,997.55
2017-05-04T02:43:39.802Z,997.57
2017-05-04T02:44:50.169Z,997.61
2017-05-04T02:46:00.500Z,997.62
2017-05-04T02:47:10.538Z,997.59
2017-05-04T02:48:20.916Z,997.56
2017-05-04T02:49:30.620Z,997.58
2017-05-04T02:50:40.978Z,997.56
2017-05-04T02:51:51.012Z,997.58
2017-05-04T02:53:01.380Z,997.54
2017-05-04T02:54:11.729Z,997.46
2017-05-04T02:55:22.083Z,997.48
2017-05-04T02:56:32.415Z,997.43
2017-05-04T02:57:42.766Z,997.41
2017-05-04T02:58:52.794Z,997.42
2017-05-04T03:00:02.825Z,997.42
2017-05-04T03:01:13.168Z,997.35
2017-05-04T03:32:59.115Z,997.06
2017-05-04T03:34:09.154Z,997.09
2017-05-04T03:35:19.498Z,997.07
2017-05-04T03:36:29.534Z,997.03
2017-05-04T03:37:39.573Z,997.05
2017-05-04T03:38:49.927Z,997.09
2017-05-04T03:40:00.290Z,997.1
2017-05-04T03:41:10.638Z,997.05
2017-05-04T03:42:20.968Z,997.08
2017-05-04T03:43:30.997Z,997.13
2017-05-04T03:44:41.317Z,997.09
2017-05-04T03:45:51.334Z,997.12
2017-05-04T03:47:01.047Z,997.07
2017-05-04T03:48:11.396Z,997.06
2017-05-04T03:49:21.738Z,997.05
2017-05-04T03:50:31.826Z,997.08
2017-05-04T03:51:41.873Z,997.11
2017-05-04T03:52:52.232Z,997.06
2017-05-04T03:54:02.588Z,997.12
2017-05-04T03:55:12.922Z,997.08
2017-05-04T03:56:22.954Z,997.09
2017-05-04T03:57:33.283Z,997.1
2017-05-04T03:58:43.638Z,997.06
2017-05-04T03:59:53.990Z,997.09
2017-05-04T04:01:04.343Z,997.11
2017-05-04T04:02:14.388Z,997.09
2017-05-04T04:03:24.740Z,997.1
2017-05-04T04:04:34.765Z,997.1
2017-05-04T04:05:45.100Z,997.11
2017-05-04T04:06:55.454Z,997.08
2017-05-04T04:08:05.486Z,997.09
2017-05-04T04:09:15.813Z,997.12
2017-05-04T04:10:26.162Z,997.1
2017-05-04T04:11:36.504Z,997.07
2017-05-04T04:12:46.537Z,997.1
2017-05-04T04:13:56.568Z,997.13
2017-05-04T04:15:06.921Z,997.11
2017-05-04T04:16:17.280Z,997.11
2017-05-04T04:17:27.870Z,997.13
2017-05-04T04:18:38.211Z,997.15
2017-05-04T04:19:47.978Z,997.13
2017-05-04T04:20:58.320Z,997.15
2017-05-04T04:22:08.363Z,997.14
2017-05-04T04:23:18.705Z,997.18
2017-05-04T04:24:29.070Z,997.19
2017-05-04T04:25:39.122Z,997.17
2017-05-04T04:26:49.167Z,997.19
2017-05-04T04:27:59.510Z,997.2
2017-05-04T04:29:09.863Z,997.19
2017-05-04T04:30:19.906Z,997.22
2017-05-04T04:31:29.943Z,997.2
2017-05-04T04:32:39.983Z,997.23
2017-05-04T04:33:50.324Z,997.22
2017-05-04T04:35:00.669Z,997.22
2017-05-04T04:36:10.996Z,997.17
2017-05-04T04:37:21.036Z,997.22
2017-05-04T04:38:31.381Z,997.24
2017-05-04T04:39:41.402Z,997.21
2017-05-04T04:40:51.756Z,997.21
2017-05-04T04:42:02.095Z,997.25
2017-05-04T04:43:12.183Z,997.22
2017-05-04T04:44:22.568Z,997.26
2017-05-04T04:45:32.940Z,997.23
2017-05-04T04:46:43.353Z,997.28
2017-05-04T04:47:53.763Z,997.24
2017-05-04T04:49:03.838Z,997.27
2017-05-04T04:50:14.193Z,997.31
2017-05-04T04:51:24.229Z,997.26
2017-05-04T04:52:34.595Z,997.28
2017-05-04T04:53:44.949Z,997.28
2017-05-04T04:54:55.306Z,997.26
2017-05-04T04:56:05.696Z,997.23
2017-05-04T04:57:16.054Z,997.23
2017-05-04T04:58:26.639Z,997.22
2017-05-04T04:59:37.031Z,997.22
2017-05-04T05:00:47.082Z,997.23
2017-05-04T05:01:57.412Z,997.23
2017-05-04T05:03:07.751Z,997.22
2017-05-04T05:04:18.118Z,997.21
2017-05-04T05:05:28.157Z,997.24
2017-05-04T05:06:38.506Z,997.26
2017-05-04T05:07:48.861Z,997.28
2017-05-04T05:08:58.901Z,997.27
2017-05-04T05:10:08.953Z,997.26
2017-05-04T05:11:19.287Z,997.23
2017-05-04T05:12:29.326Z,997.26
2017-05-04T05:13:39.691Z,997.22
2017-05-04T05:14:50.094Z,997.24
2017-05-04T05:16:00.448Z,997.24
2017-05-04T05:17:10.790Z,997.16
2017-05-04T05:18:21.137Z,997.17
2017-05-04T05:19:31.511Z,997.2
2017-05-04T05:20:41.867Z,997.16
2017-05-04T05:21:51.904Z,997.21
2017-05-04T05:23:02.007Z,997.14
2017-05-04T05:24:12.344Z,997.2
2017-05-04T05:25:22.707Z,997.23
2017-05-04T05:26:33.066Z,997.21
2017-05-04T05:27:43.094Z,997.2
2017-05-04T05:28:53.144Z,997.23
2017-05-04T05:30:03.198Z,997.2
2017-05-04T05:31:13.231Z,997.21
2017-05-04T05:32:23.576Z,997.21
2017-05-04T05:33:33.921Z,997.16
2017-05-04T05:34:44.265Z,997.17
2017-05-04T05:35:54.610Z,997.18
2017-05-04T05:37:04.966Z,997.17
2017-05-04T05:38:15.309Z,997.18
2017-05-04T05:39:25.646Z,997.17
2017-05-04T05:40:36.008Z,997.16
2017-05-04T05:41:46.363Z,997.12
2017-05-04T05:42:56.717Z,997.14
2017-05-04T05:44:07.068Z,997.13
2017-05-04T05:45:17.419Z,997.13
2017-05-04T05:46:27.461Z,997.1
2017-05-04T05:47:37.487Z,997.06
2017-05-04T05:48:47.538Z,997.12
2017-05-04T05:49:57.885Z,997.11
2017-05-04T05:51:08.233Z,997.08
2017-05-04T05:52:18.578Z,997.14
2017-05-04T05:53:28.301Z,997.11
2017-05-04T05:54:38.333Z,997.11
2017-05-04T05:55:48.685Z,997.14
2017-05-04T05:56:59.029Z,997.16
2017-05-04T05:58:09.070Z,997.11
2017-05-04T05:59:19.444Z,997.09
2017-05-04T06:00:29.475Z,997.09
2017-05-04T06:01:39.818Z,997.06
2017-05-04T06:02:50.170Z,997.08
2017-05-04T06:04:00.546Z,997.08
2017-05-04T06:05:10.897Z,997.09
2017-05-04T06:06:21.243Z,997.12
2017-05-04T06:07:31.596Z,997.11
2017-05-04T06:08:41.688Z,997.1
2017-05-04T06:09:52.030Z,997.09
2017-05-04T06:11:02.395Z,997.11
2017-05-04T06:12:12.744Z,997.11
2017-05-04T06:13:22.467Z,997.07
2017-05-04T06:14:32.803Z,997.13
2017-05-04T06:15:43.146Z,997.1
2017-05-04T06:16:53.184Z,997.09
2017-05-04T06:18:03.556Z,997.1
2017-05-04T06:19:13.581Z,997.1
2017-05-04T06:20:23.635Z,997.12
2017-05-04T06:21:33.663Z,997.09
2017-05-04T06:22:43.700Z,997.11
2017-05-04T06:23:54.051Z,997.13
2017-05-04T06:25:04.397Z,997.15
2017-05-04T06:26:14.115Z,997.18
2017-05-04T06:27:24.465Z,997.14
2017-05-04T06:28:34.820Z,997.13
2017-05-04T06:29:44.876Z,997.11
2017-05-04T06:30:55.220Z,997.11
2017-05-04T06:32:05.602Z,997.13
2017-05-04T06:33:15.645Z,997.14
2017-05-04T06:34:25.985Z,997.14
2017-05-04T06:35:36.338Z,997.17
2017-05-04T06:36:46.678Z,997.13
2017-05-04T06:37:57.028Z,997.13
2017-05-04T06:39:07.359Z,997.09
2017-05-04T06:40:17.412Z,997.07
2017-05-04T06:41:27.448Z,997.13
2017-05-04T06:42:37.799Z,997.14
2017-05-04T06:43:47.836Z,997.16
2017-05-04T06:44:57.855Z,997.15
2017-05-04T06:46:08.210Z,997.16
2017-05-04T06:47:17.930Z,997.14
2017-05-04T06:48:27.963Z,997.15
2017-05-04T06:49:37.989Z,997.15
2017-05-04T06:50:48.337Z,997.15
2017-05-04T06:51:58.690Z,997.14
2017-05-04T06:53:08.728Z,997.12
2017-05-04T06:54:18.755Z,997.17
2017-05-04T06:55:29.111Z,997.13
2017-05-04T06:56:39.493Z,997.12
2017-05-04T06:57:49.847Z,997.11
2017-05-04T06:58:59.896Z,997.12
2017-05-04T07:00:09.940Z,997.15
2017-05-04T07:01:19.973Z,997.17
2017-05-04T07:02:30.336Z,997.2
2017-05-04T07:03:40.681Z,997.22
2017-05-04T07:04:51.035Z,997.22
2017-05-04T07:06:01.388Z,997.2
2017-05-04T07:07:11.420Z,997.22
2017-05-04T07:08:21.753Z,997.17
2017-05-04T07:09:32.098Z,997.14
2017-05-04T07:10:42.448Z,997.12
2017-05-04T07:11:52.485Z,997.11
2017-05-04T07:13:02.503Z,997.13
2017-05-04T07:14:12.870Z,997.13
2017-05-04T07:15:23.202Z,997.1
2017-05-04T07:16:33.219Z,997.09
2017-05-04T07:17:43.576Z,997.04
2017-05-04T07:18:53.922Z,997.05
2017-05-04T07:20:04.064Z,997.07
2017-05-04T07:21:14.086Z,997.03
2017-05-04T07:22:24.443Z,997.07
2017-05-04T07:23:34.547Z,997.05
2017-05-04T07:24:44.269Z,997.01
2017-05-04T07:25:54.623Z,997.05
2017-05-04T07:27:04.975Z,997.04
2017-05-04T07:28:15.323Z,997.03
2017-05-04T07:29:25.357Z,997.06
2017-05-04T07:30:35.725Z,997.08
2017-05-04T07:31:45.439Z,997.08
2017-05-04T07:32:55.783Z,997.07
2017-05-04T07:34:06.124Z,997.03
2017-05-04T07:35:16.135Z,997.03
2017-05-04T07:36:26.514Z,997.03
2017-05-04T07:37:36.574Z,997.01
2017-05-04T07:38:46.933Z,996.99
2017-05-04T07:39:57.278Z,996.99
2017-05-04T07:41:07.633Z,997.02
2017-05-04T07:42:17.669Z,997.05
2017-05-04T07:43:28.026Z,997.06
2017-05-04T07:44:38.059Z,997.09
2017-05-04T07:45:48.393Z,997.14
2017-05-04T07:46:58.770Z,997.13
2017-05-04T07:48:08.811Z,997.13
2017-05-04T07:49:18.838Z,997.12
2017-05-04T07:50:29.174Z,997.11
2017-05-04T07:51:39.539Z,997.08
2017-05-04T07:52:49.890Z,997.11
2017-05-04T07:54:00.249Z,997.11
2017-05-04T07:55:10.281Z,997.14
2017-05-04T07:56:20.619Z,997.17
2017-05-04T07:57:30.956Z,997.19
2017-05-04T07:58:40.987Z,997.25
2017-05-04T07:59:51.032Z,997.22
2017-05-04T08:01:01.080Z,997.25
2017-05-04T08:02:10.544Z,997.26
2017-05-04T08:03:20.586Z,997.28
2017-05-04T08:04:30.974Z,997.3
2017-05-04T08:05:41.330Z,997.28
2017-05-04T08:06:51.050Z,997.3
2017-05-04T08:08:01.453Z,997.35
2017-05-04T08:09:11.800Z,997.36
2017-05-04T08:10:22.147Z,997.35
2017-05-04T08:11:32.491Z,997.35
2017-05-04T08:12:42.762Z,997.33
2017-05-04T08:13:53.116Z,997.35
2017-05-04T08:15:03.147Z,997.33
2017-05-04T08:16:13.478Z,997.34
2017-05-04T08:17:23.513Z,997.39
2017-05-04T08:18:33.854Z,997.35
2017-05-04T08:19:44.210Z,997.38
2017-05-04T08:20:54.556Z,997.37
2017-05-04T08:22:04.913Z,997.35
2017-05-04T08:23:15.294Z,997.33
2017-05-04T08:24:25.637Z,997.31
2017-05-04T08:25:35.999Z,997.31
2017-05-04T08:26:46.347Z,997.28
2017-05-04T08:27:56.382Z,997.3
2017-05-04T08:29:06.409Z,997.25
2017-05-04T08:30:16.456Z,997.25
2017-05-04T08:31:26.489Z,997.21
2017-05-04T08:32:36.835Z,997.24
2017-05-04T08:33:47.191Z,997.22
2017-05-04T08:34:57.547Z,997.21
2017-05-04T08:36:07.899Z,997.23
2017-05-04T08:37:18.251Z,997.23
2017-05-04T08:38:28.598Z,997.21
2017-05-04T08:39:38.937Z,997.22
2017-05-04T08:40:49.292Z,997.25
2017-05-04T08:41:59.640Z,997.23
2017-05-04T08:43:09.662Z,997.19
2017-05-04T08:44:19.702Z,997.22
2017-05-04T08:45:30.040Z,997.16
2017-05-04T08:46:40.075Z,997.2
2017-05-04T08:47:50.439Z,997.21
2017-05-04T08:49:00.792Z,997.17
2017-05-04T08:50:11.137Z,997.22
2017-05-04T08:51:21.177Z,997.21
2017-05-04T08:52:31.228Z,997.2
2017-05-04T08:53:41.578Z,997.2
2017-05-04T08:54:51.607Z,997.18
2017-05-04T08:56:01.970Z,997.19
2017-05-04T08:57:12.039Z,997.2
2017-05-04T08:58:22.426Z,997.18
2017-05-04T08:59:32.789Z,997.17
2017-05-04T09:00:43.166Z,997.16
2017-05-04T09:01:53.203Z,997.15
2017-05-04T09:03:03.568Z,997.14
2017-05-04T09:04:13.920Z,997.14
2017-05-04T09:05:24.302Z,997.14
2017-05-04T09:06:34.650Z,997.14
2017-05-04T09:07:44.997Z,997.15
2017-05-04T09:08:55.346Z,997.19
2017-05-04T09:10:05.707Z,997.18
2017-05-04T09:11:16.100Z,997.17
2017-05-04T09:12:26.478Z,997.2
2017-05-04T09:13:36.829Z,997.19
2017-05-04T09:14:46.877Z,997.21
2017-05-04T09:15:57.221Z,997.18
2017-05-04T09:17:07.285Z,997.21
2017-05-04T09:18:17.619Z,997.2
2017-05-04T09:19:27.674Z,997.23
2017-05-04T09:20:38.035Z,997.19
2017-05-04T09:21:48.090Z,997.24
2017-05-04T09:22:58.459Z,997.27
2017-05-04T09:24:08.792Z,997.27
2017-05-04T09:25:19.145Z,997.3
2017-05-04T09:26:29.489Z,997.29
2017-05-04T09:27:39.532Z,997.29
2017-05-04T09:28:49.885Z,997.31
2017-05-04T09:30:00.236Z,997.29
2017-05-04T09:31:10.584Z,997.34
2017-05-04T09:32:20.942Z,997.29
2017-05-04T09:33:30.971Z,997.31
2017-05-04T09:34:41.322Z,997.32
2017-05-04T09:35:51.662Z,997.32
2017-05-04T09:37:01.718Z,997.35
2017-05-04T09:38:12.088Z,997.31
2017-05-04T09:39:22.488Z,997.33
2017-05-04T09:40:31.910Z,997.36
2017-05-04T09:41:42.247Z,997.37
2017-05-04T09:42:52.627Z,997.38
2017-05-04T09:44:02.985Z,997.37
2017-05-04T09:45:12.717Z,997.38
2017-05-04T09:46:23.082Z,997.4
2017-05-04T09:47:33.417Z,997.39
2017-05-04T09:48:43.781Z,997.38
2017-05-04T09:49:53.839Z,997.39
2017-05-04T09:51:04.214Z,997.4
2017-05-04T09:52:14.587Z,997.37
2017-05-04T09:53:24.935Z,997.38
2017-05-04T09:54:35.294Z,997.35
2017-05-04T09:55:45.382Z,997.35
2017-05-04T09:56:55.766Z,997.4
2017-05-04T09:58:06.146Z,997.41
2017-05-04T09:59:16.503Z,997.43
2017-05-04T10:00:26.855Z,997.36
2017-05-04T10:01:37.246Z,997.36
2017-05-04T10:02:46.976Z,997.41
2017-05-04T10:03:57.365Z,997.41
2017-05-04T10:05:07.391Z,997.41
2017-05-04T10:06:17.424Z,997.4
2017-05-04T10:07:27.819Z,997.39
2017-05-04T10:08:38.188Z,997.4
2017-05-04T10:09:48.562Z,997.38
2017-05-04T10:10:58.950Z,997.41
2017-05-04T10:12:08.977Z,997.4
2017-05-04T10:13:19.355Z,997.37
2017-05-04T10:14:29.718Z,997.41
2017-05-04T10:15:40.083Z,997.45
2017-05-04T10:16:50.485Z,997.43
2017-05-04T10:18:00.854Z,997.4
2017-05-04T10:19:11.208Z,997.39
2017-05-04T10:20:20.963Z,997.37
2017-05-04T10:21:31.015Z,997.37
2017-05-04T10:22:41.058Z,997.37
2017-05-04T10:23:51.407Z,997.35
2017-05-04T10:25:01.772Z,997.35
2017-05-04T10:26:12.133Z,997.33
2017-05-04T10:27:22.489Z,997.33
2017-05-04T10:28:32.848Z,997.29
2017-05-04T10:29:42.587Z,997.33
2017-05-04T10:30:52.939Z,997.29
2017-05-04T10:32:03.290Z,997.27
2017-05-04T10:33:13.700Z,997.26
2017-05-04T10:34:24.096Z,997.18
2017-05-04T10:35:34.465Z,997.16
2017-05-04T10:36:44.838Z,997.18
2017-05-04T10:37:55.210Z,997.14
2017-05-04T10:39:05.560Z,997.19
2017-05-04T10:40:15.907Z,997.17
2017-05-04T10:41:25.950Z,997.19
2017-05-04T10:42:35.982Z,997.17
2017-05-04T10:43:46.329Z,997.18
2017-05-04T10:44:56.698Z,997.18
2017-05-04T10:46:07.029Z,997.18
2017-05-04T10:47:17.440Z,997.11
2017-05-04T10:48:27.804Z,997.14
2017-05-04T10:49:38.171Z,997.14
2017-05-04T10:50:48.525Z,997.14
2017-05-04T10:51:58.565Z,997.08
2017-05-04T10:53:08.588Z,997.15
2017-05-04T10:54:18.945Z,997.14
2017-05-04T10:55:29.312Z,997.12
2017-05-04T10:56:39.671Z,997.07
2017-05-04T10:57:50.033Z,997.04
2017-05-04T10:59:00.381Z,997.05
2017-05-04T11:00:10.407Z,997.06
2017-05-04T11:01:20.769Z,997.11
2017-05-04T11:02:31.171Z,997.09
2017-05-04T11:03:41.255Z,997.04
2017-05-04T11:04:51.611Z,997.01
2017-05-04T11:06:01.987Z,997
2017-05-04T11:07:12.034Z,996.99
2017-05-04T11:08:22.167Z,996.99
2017-05-04T11:09:32.575Z,996.97
2017-05-04T11:10:42.939Z,996.98
2017-05-04T11:11:53.287Z,996.97
2017-05-04T11:13:03.326Z,996.95
2017-05-04T11:14:13.674Z,996.95
2017-05-04T11:15:24.025Z,996.96
2017-05-04T11:16:34.367Z,996.96
2017-05-04T11:17:44.718Z,996.92
2017-05-04T11:18:55.069Z,997.01
2017-05-04T11:20:05.430Z,996.96
2017-05-04T11:21:15.891Z,996.93
2017-05-04T11:22:25.963Z,996.94
2017-05-04T11:23:36.335Z,996.93
2017-05-04T11:24:46.691Z,996.95
2017-05-04T11:25:57.059Z,996.96
2017-05-04T11:27:07.431Z,996.94
2017-05-04T11:28:17.808Z,996.97
2017-05-04T11:29:28.191Z,997.01
2017-05-04T11:30:38.557Z,997.02
2017-05-04T11:31:48.315Z,997.06
2017-05-04T11:32:58.675Z,997.05
2017-05-04T11:34:09.037Z,997.01
2017-05-04T11:35:19.106Z,997.06
2017-05-04T11:36:28.863Z,997.04
2017-05-04T11:37:39.196Z,997
2017-05-04T11:38:49.554Z,996.98
2017-05-04T11:39:59.937Z,996.98
2017-05-04T11:41:09.981Z,997.03
2017-05-04T11:42:20.053Z,996.99
2017-05-04T11:43:30.105Z,996.95
2017-05-04T11:44:40.476Z,996.92
2017-05-04T11:45:50.854Z,996.92
2017-05-04T11:47:00.921Z,996.94
2017-05-04T11:48:11.250Z,996.91
2017-05-04T11:49:21.325Z,996.88
2017-05-04T11:50:31.716Z,996.87
2017-05-04T11:51:41.774Z,996.92
2017-05-04T11:52:51.848Z,996.9
2017-05-04T11:54:02.255Z,996.86
2017-05-04T11:55:12.606Z,996.85
2017-05-04T11:56:22.340Z,996.82
2017-05-04T11:57:32.721Z,996.84
2017-05-04T11:58:43.112Z,996.88
2017-05-04T11:59:53.223Z,996.89
2017-05-04T12:01:03.269Z,996.88
2017-05-04T12:02:13.647Z,996.88
2017-05-04T12:03:24.006Z,996.89
2017-05-04T12:04:34.352Z,996.88
2017-05-04T12:05:44.699Z,996.9
2017-05-04T12:06:54.817Z,996.86
2017-05-04T12:08:05.186Z,996.85
2017-05-04T12:09:15.225Z,996.89
2017-05-04T12:10:25.566Z,996.8
2017-05-04T12:11:35.908Z,996.81
2017-05-04T12:12:45.958Z,996.78
2017-05-04T12:13:56.315Z,996.81
2017-05-04T12:15:06.660Z,996.75
2017-05-04T12:16:17.007Z,996.76
2017-05-04T12:17:27.355Z,996.76
2017-05-04T12:18:37.710Z,996.73
2017-05-04T12:19:48.061Z,996.69
2017-05-04T12:20:58.119Z,996.73
2017-05-04T12:22:08.192Z,996.7
2017-05-04T12:23:18.578Z,996.72
2017-05-04T12:24:28.952Z,996.7
2017-05-04T12:25:39.303Z,996.65
2017-05-04T12:26:49.669Z,996.66
2017-05-04T12:28:00.021Z,996.67
2017-05-04T12:29:10.377Z,996.65
2017-05-04T12:30:20.752Z,996.66
2017-05-04T12:31:31.110Z,996.69
2017-05-04T12:32:41.478Z,996.64
2017-05-04T12:33:51.850Z,996.64
2017-05-04T12:35:01.896Z,996.62
2017-05-04T12:36:11.938Z,996.65
2017-05-04T12:37:22.295Z,996.65
2017-05-04T12:38:32.651Z,996.58
2017-05-04T12:39:43.034Z,996.62
2017-05-04T12:40:53.401Z,996.62
2017-05-04T12:42:03.450Z,996.57
2017-05-04T12:43:13.803Z,996.56
2017-05-04T12:44:23.555Z,996.59
2017-05-04T12:45:33.901Z,996.51
2017-05-04T12:46:44.260Z,996.49
2017-05-04T12:47:54.615Z,996.49
2017-05-04T12:49:04.961Z,996.43
2017-05-04T12:50:15.312Z,996.41
2017-05-04T12:51:25.352Z,996.43
2017-05-04T12:52:35.397Z,996.39
2017-05-04T12:53:44.871Z,996.41
2017-05-04T12:54:54.917Z,996.39
2017-05-04T12:56:05.272Z,996.41
2017-05-04T12:57:15.613Z,996.41
2017-05-04T12:58:25.995Z,996.37
2017-05-04T12:59:36.373Z,996.35
2017-05-04T13:00:46.724Z,996.34
2017-05-04T13:01:57.065Z,996.3
2017-05-04T13:03:06.797Z,996.31
2017-05-04T13:04:17.154Z,996.27
2017-05-04T13:05:27.508Z,996.32
2017-05-04T13:06:37.859Z,996.27
2017-05-04T13:07:48.218Z,996.31
2017-05-04T13:08:58.263Z,996.3
2017-05-04T13:10:08.636Z,996.28
2017-05-04T13:11:19.026Z,996.27
2017-05-04T13:12:29.370Z,996.25
2017-05-04T13:13:39.723Z,996.25
2017-05-04T13:14:50.090Z,996.26
2017-05-04T13:16:00.427Z,996.26
2017-05-04T13:17:10.488Z,996.25
2017-05-04T13:18:20.840Z,996.27
2017-05-04T13:19:31.218Z,996.25
2017-05-04T13:20:41.253Z,996.27
2017-05-04T13:21:51.289Z,996.29
2017-05-04T13:23:01.625Z,996.23
2017-05-04T13:24:11.976Z,996.26
2017-05-04T13:25:22.339Z,996.24
2017-05-04T13:26:32.696Z,996.25
2017-05-04T13:27:43.056Z,996.22
2017-05-04T13:28:53.416Z,996.22
2017-05-04T13:30:03.780Z,996.21
2017-05-04T13:31:13.814Z,996.23
2017-05-04T13:32:24.156Z,996.19
2017-05-04T13:33:34.186Z,996.17
2017-05-04T13:34:44.243Z,996.15
2017-05-04T13:35:54.635Z,996.15
2017-05-04T13:37:04.989Z,996.17
2017-05-04T13:38:15.352Z,996.14
2017-05-04T13:39:25.714Z,996.13
2017-05-04T13:40:35.788Z,996.13
2017-05-04T13:41:46.156Z,996.14
2017-05-04T13:42:56.555Z,996.21
2017-05-04T13:44:06.913Z,996.2
2017-05-04T13:45:17.268Z,996.14
2017-05-04T13:46:27.616Z,996.17
2017-05-04T13:47:37.980Z,996.11
2017-05-04T13:48:48.343Z,996.06
2017-05-04T13:49:58.701Z,996.04
2017-05-04T13:51:09.103Z,996.02
2017-05-04T13:52:19.474Z,995.99
2017-05-04T13:53:29.208Z,996.01
2017-05-04T13:54:39.578Z,996.01
2017-05-04T13:55:49.950Z,995.98
2017-05-04T13:57:00.302Z,995.99
2017-05-04T13:58:10.340Z,995.99
2017-05-04T13:59:20.693Z,995.96
2017-05-04T14:00:31.052Z,995.96
2017-05-04T14:01:41.423Z,995.97
2017-05-04T14:02:51.770Z,995.94
2017-05-04T14:04:01.813Z,995.98
2017-05-04T14:05:12.176Z,995.89
2017-05-04T14:06:22.542Z,995.97
2017-05-04T14:07:32.584Z,995.91
2017-05-04T14:08:42.993Z,995.88
2017-05-04T14:09:53.061Z,995.85
2017-05-04T14:11:03.128Z,995.83
2017-05-04T14:12:13.185Z,995.86
2017-05-04T14:13:23.542Z,995.83
2017-05-04T14:14:33.589Z,995.75
2017-05-04T14:15:43.619Z,995.8
2017-05-04T14:16:53.340Z,995.8
2017-05-04T14:18:03.692Z,995.75
2017-05-04T14:19:13.744Z,995.78
2017-05-04T14:20:24.100Z,995.85
2017-05-04T14:21:34.458Z,995.78
2017-05-04T14:22:44.816Z,995.77
2017-05-04T14:23:54.858Z,995.72
2017-05-04T14:25:05.215Z,995.7
2017-05-04T14:26:15.569Z,995.66
2017-05-04T14:27:25.908Z,995.65
2017-05-04T14:28:36.256Z,995.66
2017-05-04T14:29:46.602Z,995.66
2017-05-04T14:30:56.647Z,995.62
2017-05-04T14:32:06.991Z,995.62
2017-05-04T14:33:17.037Z,995.6
2017-05-04T14:34:27.390Z,995.63
2017-05-04T14:35:37.125Z,995.65
2017-05-04T14:36:47.480Z,995.65
2017-05-04T14:37:57.821Z,995.62
2017-05-04T14:39:07.848Z,995.54
2017-05-04T14:40:18.206Z,995.48
2017-05-04T14:41:28.242Z,995.52
2017-05-04T14:42:38.596Z,995.5
2017-05-04T14:43:48.936Z,995.47
2017-05-04T14:44:59.022Z,995.45
2017-05-04T14:46:09.409Z,995.38
2017-05-04T14:47:19.759Z,995.33
2017-05-04T14:48:30.106Z,995.31
2017-05-04T14:49:40.455Z,995.33
2017-05-04T14:50:50.807Z,995.34
2017-05-04T14:52:01.154Z,995.36
2017-05-04T14:53:11.496Z,995.38
2017-05-04T14:54:21.895Z,995.39
2017-05-04T14:55:31.958Z,995.32
2017-05-04T14:56:42.316Z,995.32
2017-05-04T14:57:52.668Z,995.3
2017-05-04T14:59:02.711Z,995.23
2017-05-04T15:00:12.770Z,995.2
2017-05-04T15:01:23.136Z,995.16
2017-05-04T15:02:33.489Z,995.15
2017-05-04T15:03:43.842Z,995.13
2017-05-04T15:04:54.185Z,995.11
2017-05-04T15:06:04.544Z,995.09
2017-05-04T15:07:14.581Z,995.08
2017-05-04T15:08:24.952Z,995.1
2017-05-04T15:09:35.305Z,995.12